sensor_id;sensor_type;location;lat;lon;timestamp;temperature;humidity
54946;DHT22;40846;44.788;20.486;2023-05-10T00:00:28;281.70;2278.40
54946;DHT22;40846;44.788;20.486;2023-05-10T00:02:54;281.60;2278.40
54946;DHT22;40846;44.788;20.486;2023-05-10T00:05:20;256.90;2252.80
54946;DHT22;40846;44.788;20.486;2023-05-10T03:38:39;256.90;2252.80
54946;DHT22;40846;44.788;20.486;2023-05-10T03:41:05;256.80;2252.80
54946;DHT22;40846;44.788;20.486;2023-05-10T03:43:30;256.90;2252.80
54946;DHT22;40846;44.788;20.486;2023-05-10T03:45:56;256.90;2252.80
54946;DHT22;40846;44.788;20.486;2023-05-10T03:48:22;281.60;2278.40
54946;DHT22;40846;44.788;20.486;2023-05-10T03:50:47;256.90;2252.80
54946;DHT22;40846;44.788;20.486;2023-05-10T03:53:15;256.80;2252.80
54946;DHT22;40846;44.788;20.486;2023-05-10T03:55:40;256.80;2252.80
54946;DHT22;40846;44.788;20.486;2023-05-10T03:58:06;256.80;2252.80
54946;DHT22;40846;44.788;20.486;2023-05-10T04:00:32;256.80;2252.80
54946;DHT22;40846;44.788;20.486;2023-05-10T04:02:58;256.90;2252.80
54946;DHT22;40846;44.788;20.486;2023-05-10T04:05:24;256.90;2252.80
54946;DHT22;40846;44.788;20.486;2023-05-10T04:07:49;256.90;2252.80
54946;DHT22;40846;44.788;20.486;2023-05-10T04:10:16;256.90;2252.80
54946;DHT22;40846;44.788;20.486;2023-05-10T04:12:43;256.90;2252.80
54946;DHT22;40846;44.788;20.486;2023-05-10T04:15:09;256.90;2252.80
54946;DHT22;40846;44.788;20.486;2023-05-10T04:17:34;256.90;2252.80
54946;DHT22;40846;44.788;20.486;2023-05-10T04:20:00;281.60;2278.40
54946;DHT22;40846;44.788;20.486;2023-05-10T04:22:26;281.60;2278.40
54946;DHT22;40846;44.788;20.486;2023-05-10T04:24:53;281.70;2278.40
54946;DHT22;40846;44.788;20.486;2023-05-10T04:27:18;281.70;2278.40
54946;DHT22;40846;44.788;20.486;2023-05-10T04:29:44;281.60;2278.40
54946;DHT22;40846;44.788;20.486;2023-05-10T04:32:10;281.60;2278.40
54946;DHT22;40846;44.788;20.486;2023-05-10T04:34:36;281.70;2278.40
54946;DHT22;40846;44.788;20.486;2023-05-10T04:37:02;281.80;2278.40
54946;DHT22;40846;44.788;20.486;2023-05-10T04:39:28;282.00;2278.40
54946;DHT22;40846;44.788;20.486;2023-05-10T04:41:53;282.00;2278.40
54946;DHT22;40846;44.788;20.486;2023-05-10T04:44:19;282.10;2278.40
54946;DHT22;40846;44.788;20.486;2023-05-10T04:46:45;282.20;2278.40
54946;DHT22;40846;44.788;20.486;2023-05-10T04:51:37;307.40;2304.00
54946;DHT22;40846;44.788;20.486;2023-05-10T04:54:02;307.20;2304.00
54946;DHT22;40846;44.788;20.486;2023-05-10T04:58:54;307.30;2304.00
54946;DHT22;40846;44.788;20.486;2023-05-10T05:01:20;307.20;2304.00
54946;DHT22;40846;44.788;20.486;2023-05-10T05:03:45;307.20;2304.00
54946;DHT22;40846;44.788;20.486;2023-05-10T05:06:11;307.30;2304.00
54946;DHT22;40846;44.788;20.486;2023-05-10T05:11:03;307.50;2304.00
54946;DHT22;40846;44.788;20.486;2023-05-10T05:13:29;307.40;2304.00
54946;DHT22;40846;44.788;20.486;2023-05-10T05:15:54;307.50;2304.00
54946;DHT22;40846;44.788;20.486;2023-05-10T05:18:20;307.50;2304.00
54946;DHT22;40846;44.788;20.486;2023-05-10T05:20:46;307.80;2304.00
54946;DHT22;40846;44.788;20.486;2023-05-10T05:23:12;307.70;2304.00
54946;DHT22;40846;44.788;20.486;2023-05-10T05:25:37;307.80;2304.00
54946;DHT22;40846;44.788;20.486;2023-05-10T05:28:04;308.00;2304.00
54946;DHT22;40846;44.788;20.486;2023-05-10T05:30:29;307.80;2304.00
54946;DHT22;40846;44.788;20.486;2023-05-10T05:35:22;308.10;2304.00
54946;DHT22;40846;44.788;20.486;2023-05-10T05:40:13;332.90;2329.60
54946;DHT22;40846;44.788;20.486;2023-05-10T05:42:39;333.10;2329.60
54946;DHT22;40846;44.788;20.486;2023-05-10T13:04:40;486.80;2380.80
54946;DHT22;40846;44.788;20.486;2023-05-10T13:07:09;486.50;2380.80
54946;DHT22;40846;44.788;20.486;2023-05-10T13:09:35;486.40;2380.80
54946;DHT22;40846;44.788;20.486;2023-05-10T13:12:01;486.40;2380.80
54946;DHT22;40846;44.788;20.486;2023-05-10T13:14:27;461.60;2380.80
54946;DHT22;40846;44.788;20.486;2023-05-10T13:16:53;461.60;2380.80
54946;DHT22;40846;44.788;20.486;2023-05-10T13:19:19;461.60;2380.80
54946;DHT22;40846;44.788;20.486;2023-05-10T13:21:45;461.50;2380.80
54946;DHT22;40846;44.788;20.486;2023-05-10T13:24:11;461.50;2380.80
54946;DHT22;40846;44.788;20.486;2023-05-10T13:26:42;461.60;2380.80
54946;DHT22;40846;44.788;20.486;2023-05-10T13:29:08;461.40;2380.80
54946;DHT22;40846;44.788;20.486;2023-05-10T13:31:34;461.40;2380.80
54946;DHT22;40846;44.788;20.486;2023-05-10T13:34:01;461.40;2380.80
54946;DHT22;40846;44.788;20.486;2023-05-10T13:36:27;461.40;2380.80
